< < Back
Terminal Aerodrome Forecast


Current Version              Previous Versions:   1  2  3  4  5  6  7  8  9  

Terminal Aerodrome Forecast

833
FTUS44 KMRX 201124
TAFCHA
TAF
KCHA 201124Z 2012/2112 00000KT P6SM SCT005 BKN250
     FM201600 20005KT P6SM SCT050 BKN150
     FM210200 20005KT P6SM BKN050
     FM210700 00000KT P6SM SCT040=

Latest METAR

944
SAUS80 KWBC 211600
MTRCHA
METAR KCHA 211553Z 00000KT 10SM FEW030 20/11 A3005 RMK AO2 SLP173
T02000106


USA.gov is the U.S. government's official web portal to all federal, state and local government web resources and services.